createdAt,value
2017-12-23T00:00:34.712Z,99.90
2017-12-23T00:03:00.956Z,99.90
2017-12-23T00:05:27.519Z,99.90
2017-12-23T00:07:53.867Z,99.90
2017-12-23T00:10:20.135Z,99.90
2017-12-23T00:12:46.447Z,99.90
2017-12-23T00:15:13.533Z,99.90
2017-12-23T00:17:39.812Z,99.90
2017-12-23T00:20:06.097Z,99.90
2017-12-23T00:22:32.398Z,99.90
2017-12-23T00:24:58.655Z,99.90
2017-12-23T00:27:25.707Z,99.90
2017-12-23T00:29:52.057Z,99.90
2017-12-23T00:32:19.072Z,99.90
2017-12-23T00:34:45.341Z,99.90
2017-12-23T00:37:11.926Z,99.90
2017-12-23T00:39:38.929Z,99.90
2017-12-23T00:42:05.209Z,99.90
2017-12-23T00:44:31.456Z,99.90
2017-12-23T00:46:58.484Z,99.90
2017-12-23T00:49:24.793Z,99.90
2017-12-23T00:51:51.054Z,99.90
2017-12-23T00:54:17.346Z,99.90
2017-12-23T00:56:44.363Z,99.90
2017-12-23T00:59:10.917Z,99.90
2017-12-23T01:01:37.174Z,99.90
2017-12-23T01:04:03.443Z,99.90
2017-12-23T01:06:29.728Z,99.90
2017-12-23T01:08:56.035Z,99.90
2017-12-23T01:11:23.080Z,99.90
2017-12-23T01:13:49.468Z,99.90
2017-12-23T01:16:15.725Z,99.90
2017-12-23T01:18:41.986Z,99.90
2017-12-23T01:21:08.252Z,99.90
2017-12-23T01:23:35.314Z,99.90
2017-12-23T01:26:01.617Z,99.90
2017-12-23T01:28:27.864Z,99.90
2017-12-23T01:30:54.128Z,99.90
2017-12-23T01:33:20.379Z,99.90
2017-12-23T01:35:46.635Z,99.90
2017-12-23T01:38:13.628Z,99.90
2017-12-23T01:40:40.628Z,99.90
2017-12-23T01:43:06.913Z,99.90
2017-12-23T01:45:33.909Z,99.90
2017-12-23T01:48:00.186Z,99.90
2017-12-23T01:50:26.443Z,99.90
2017-12-23T01:52:53.492Z,99.90
2017-12-23T01:55:20.497Z,99.90
2017-12-23T01:57:46.761Z,99.90
2017-12-23T02:00:13.068Z,99.90
2017-12-23T02:02:39.619Z,99.90
2017-12-23T02:05:05.873Z,99.90
2017-12-23T02:07:32.112Z,99.90
2017-12-23T02:09:58.430Z,99.90
2017-12-23T02:12:25.480Z,99.90
2017-12-23T02:14:52.551Z,99.90
2017-12-23T02:17:18.827Z,99.90
2017-12-23T02:19:45.111Z,99.90
2017-12-23T02:22:11.364Z,99.90
2017-12-23T02:24:38.353Z,99.90
2017-12-23T02:27:04.626Z,99.90
2017-12-23T02:29:30.882Z,99.90
2017-12-23T02:31:57.119Z,99.90
2017-12-23T02:34:23.380Z,99.90
2017-12-23T02:36:50.376Z,99.90
2017-12-23T02:39:16.623Z,99.90
2017-12-23T02:41:42.870Z,99.90
2017-12-23T02:44:09.474Z,99.90
2017-12-23T02:46:36.478Z,99.90
2017-12-23T02:49:02.769Z,99.90
2017-12-23T02:51:29.784Z,99.90
2017-12-23T02:53:56.060Z,99.90
2017-12-23T02:56:22.339Z,99.90
2017-12-23T02:58:48.628Z,99.90
2017-12-23T03:01:14.906Z,99.90
2017-12-23T03:03:41.904Z,99.90
2017-12-23T03:06:08.183Z,99.90
2017-12-23T03:08:34.453Z,99.90
2017-12-23T03:11:01.811Z,99.90
2017-12-23T03:13:28.868Z,99.90
2017-12-23T03:15:55.869Z,99.90
2017-12-23T03:18:22.158Z,99.90
2017-12-23T03:20:48.408Z,99.90
2017-12-23T03:23:15.747Z,99.90
2017-12-23T03:25:41.995Z,99.90
2017-12-23T03:28:08.243Z,99.90
2017-12-23T03:30:34.518Z,99.90
2017-12-23T03:33:00.792Z,99.90
2017-12-23T03:35:27.069Z,99.90
2017-12-23T03:37:54.347Z,99.90
2017-12-23T03:40:21.350Z,99.90
2017-12-23T03:42:47.597Z,99.90
2017-12-23T03:45:13.869Z,99.90
2017-12-23T03:47:40.141Z,99.90
2017-12-23T03:50:06.426Z,99.90
2017-12-23T03:52:32.689Z,99.90
2017-12-23T03:54:58.941Z,99.90
2017-12-23T03:57:25.959Z,99.90
2017-12-23T03:59:52.229Z,99.90
2017-12-23T04:02:18.520Z,99.90
2017-12-23T04:04:44.798Z,99.90
2017-12-23T04:07:11.068Z,99.90
2017-12-23T04:09:38.053Z,99.90
2017-12-23T04:12:04.381Z,99.90
2017-12-23T04:14:31.425Z,99.90
2017-12-23T04:16:58.403Z,99.90
2017-12-23T04:19:24.655Z,99.90
2017-12-23T04:21:50.968Z,99.90
2017-12-23T04:24:17.976Z,99.90
2017-12-23T04:26:44.243Z,99.90
2017-12-23T04:29:10.518Z,99.90
2017-12-23T04:31:37.864Z,99.90
2017-12-23T04:34:04.130Z,99.90
2017-12-23T04:36:30.438Z,99.90
2017-12-23T04:38:56.723Z,99.90
2017-12-23T04:41:22.991Z,99.90
2017-12-23T04:43:49.272Z,99.90
2017-12-23T04:46:16.289Z,99.90
2017-12-23T04:48:42.553Z,99.90
2017-12-23T04:51:09.566Z,99.90
2017-12-23T04:53:35.846Z,99.90
2017-12-23T04:56:02.115Z,99.90
2017-12-23T04:58:29.150Z,99.90
2017-12-23T05:00:55.408Z,99.90
2017-12-23T05:03:22.523Z,98.60
2017-12-23T05:05:48.791Z,98.50
2017-12-23T05:08:15.052Z,99.00
2017-12-23T05:10:42.048Z,99.90
2017-12-23T05:13:08.384Z,99.90
2017-12-23T05:15:34.653Z,99.90
2017-12-23T05:18:00.945Z,99.90
2017-12-23T05:20:27.206Z,99.90
2017-12-23T05:22:53.456Z,99.90
2017-12-23T05:25:19.758Z,99.90
2017-12-23T05:27:46.747Z,99.90
2017-12-23T05:30:12.996Z,99.90
2017-12-23T05:32:39.301Z,99.90
2017-12-23T05:35:06.304Z,99.90
2017-12-23T05:37:32.572Z,99.90
2017-12-23T05:39:58.813Z,99.90
2017-12-23T05:42:25.088Z,99.90
2017-12-23T05:44:51.337Z,99.90
2017-12-23T05:47:17.631Z,99.90
2017-12-23T05:49:43.892Z,99.90
2017-12-23T05:52:10.226Z,99.90
2017-12-23T05:54:36.501Z,99.90
2017-12-23T05:57:03.849Z,99.90
2017-12-23T05:59:30.092Z,99.90
2017-12-23T06:01:56.371Z,99.90
2017-12-23T06:04:22.784Z,99.90
2017-12-23T06:06:49.739Z,99.90
2017-12-23T06:09:15.997Z,99.90
2017-12-23T06:11:42.526Z,99.90
2017-12-23T06:14:09.076Z,99.90
2017-12-23T06:16:35.345Z,99.90
2017-12-23T06:19:01.629Z,99.90
2017-12-23T06:23:49.831Z,99.90
2017-12-23T06:26:16.913Z,99.90
2017-12-23T06:28:43.904Z,99.90
2017-12-23T06:31:10.193Z,99.90
2017-12-23T06:33:36.447Z,99.90
2017-12-23T06:36:02.714Z,99.90
2017-12-23T06:38:28.966Z,99.90
2017-12-23T06:40:55.243Z,99.90
2017-12-23T06:43:21.495Z,99.90
2017-12-23T06:45:47.768Z,99.90
2017-12-23T06:48:14.032Z,99.90
2017-12-23T06:50:40.293Z,99.90
2017-12-23T06:53:06.557Z,99.90
2017-12-23T06:55:32.856Z,99.90
2017-12-23T06:57:59.852Z,99.90
2017-12-23T07:00:26.163Z,99.90
2017-12-23T07:02:52.444Z,99.90
2017-12-23T07:05:18.700Z,99.90
2017-12-23T07:07:45.732Z,99.90
2017-12-23T07:10:12.007Z,99.90
2017-12-23T07:12:39.009Z,99.90
2017-12-23T07:15:06.026Z,99.90
2017-12-23T07:17:32.329Z,99.90
2017-12-23T07:19:58.608Z,99.90
2017-12-23T07:22:24.897Z,99.90
2017-12-23T07:24:51.194Z,99.90
2017-12-23T07:27:18.235Z,99.90
2017-12-23T07:29:45.258Z,99.90
2017-12-23T07:32:11.546Z,99.90
2017-12-23T07:34:38.583Z,99.90
2017-12-23T07:37:04.863Z,99.90
2017-12-23T07:39:31.166Z,99.90
2017-12-23T07:41:57.420Z,99.90
2017-12-23T07:44:24.440Z,99.90
2017-12-23T07:46:50.731Z,99.90
2017-12-23T07:49:17.008Z,99.90
2017-12-23T07:51:43.268Z,99.90
2017-12-23T07:54:09.546Z,99.90
2017-12-23T07:56:35.803Z,99.90
2017-12-23T07:59:02.808Z,99.90
2017-12-23T08:01:29.090Z,99.90
2017-12-23T08:03:56.084Z,99.90
2017-12-23T08:06:22.353Z,99.90
2017-12-23T08:08:48.632Z,99.90
2017-12-23T08:11:14.905Z,99.90
2017-12-23T08:13:41.151Z,99.90
2017-12-23T08:16:07.435Z,99.90
2017-12-23T08:18:33.723Z,99.90
2017-12-23T08:21:00.011Z,99.90
2017-12-23T08:23:26.278Z,99.90
2017-12-23T08:25:53.276Z,99.90
2017-12-23T08:28:19.649Z,99.90
2017-12-23T08:30:45.923Z,99.90
2017-12-23T08:33:12.934Z,99.90
2017-12-23T08:35:39.190Z,99.90
2017-12-23T08:38:05.465Z,99.90
2017-12-23T08:40:31.895Z,99.90
2017-12-23T08:42:58.220Z,99.90
2017-12-23T08:45:24.498Z,99.90
2017-12-23T08:47:51.480Z,99.90
2017-12-23T08:50:17.743Z,99.90
2017-12-23T08:52:43.995Z,99.90
2017-12-23T08:55:10.291Z,99.90
2017-12-23T08:57:37.297Z,99.90
2017-12-23T09:00:03.591Z,99.90
2017-12-23T09:02:30.597Z,99.90
2017-12-23T09:04:56.863Z,99.90
2017-12-23T09:07:23.169Z,99.90
2017-12-23T09:09:49.496Z,99.90
2017-12-23T09:12:15.773Z,99.90
2017-12-23T09:14:42.060Z,99.90
2017-12-23T09:17:09.062Z,99.90
2017-12-23T09:19:35.354Z,99.90
2017-12-23T09:22:09.727Z,99.90
2017-12-23T09:24:36.356Z,99.90
2017-12-23T09:27:02.640Z,99.90
2017-12-23T09:29:28.909Z,99.90
2017-12-23T09:31:55.181Z,99.90
2017-12-23T09:34:22.199Z,99.90
2017-12-23T09:36:48.461Z,99.90
2017-12-23T09:39:15.480Z,99.90
2017-12-23T09:41:41.794Z,99.90
2017-12-23T09:44:08.079Z,99.90
2017-12-23T09:46:34.346Z,99.90
2017-12-23T09:49:01.378Z,99.90
2017-12-23T09:51:27.661Z,99.90
2017-12-23T09:53:54.664Z,99.90
2017-12-23T09:56:20.919Z,99.90
2017-12-23T09:58:47.188Z,99.90
2017-12-23T10:01:14.211Z,99.90
2017-12-23T10:03:40.443Z,99.90
2017-12-23T10:06:06.701Z,99.90
2017-12-23T10:08:32.976Z,99.90
2017-12-23T10:10:59.987Z,99.90
2017-12-23T10:13:26.260Z,99.90
2017-12-23T10:15:52.533Z,99.90
2017-12-23T10:18:18.843Z,99.90
2017-12-23T10:20:45.873Z,99.90
2017-12-23T10:23:12.187Z,99.90
2017-12-23T10:25:38.515Z,99.90
2017-12-23T10:28:05.532Z,99.90
2017-12-23T10:30:31.837Z,99.90
2017-12-23T10:32:58.064Z,99.90
2017-12-23T10:35:24.396Z,99.90
2017-12-23T10:37:51.400Z,99.90
2017-12-23T10:40:17.688Z,99.90
2017-12-23T10:42:44.672Z,99.90
2017-12-23T10:45:10.951Z,99.90
2017-12-23T10:47:37.230Z,99.90
2017-12-23T10:50:03.540Z,99.90
2017-12-23T10:52:29.798Z,99.90
2017-12-23T10:54:56.327Z,99.90
2017-12-23T10:57:22.621Z,99.90
2017-12-23T10:59:48.880Z,99.90
2017-12-23T11:02:15.141Z,99.90
2017-12-23T11:04:41.425Z,99.90
2017-12-23T11:07:08.450Z,99.90
2017-12-23T11:09:34.688Z,99.90
2017-12-23T11:12:00.953Z,99.90
2017-12-23T11:14:27.241Z,99.90
2017-12-23T11:16:53.509Z,99.90
2017-12-23T11:19:19.760Z,99.90
2017-12-23T11:21:46.034Z,99.90
2017-12-23T11:24:12.264Z,99.90
2017-12-23T11:26:38.561Z,99.90
2017-12-23T11:29:04.828Z,99.90
2017-12-23T11:31:31.101Z,99.90
2017-12-23T11:33:58.122Z,99.90
2017-12-23T11:36:24.365Z,99.90
2017-12-23T11:38:50.643Z,99.90
2017-12-23T11:41:17.672Z,99.90
2017-12-23T11:43:43.965Z,99.90
2017-12-23T11:46:10.252Z,99.90
2017-12-23T11:48:36.572Z,99.90
2017-12-23T11:51:02.861Z,99.90
2017-12-23T11:53:29.893Z,99.90
2017-12-23T11:55:56.138Z,99.90
2017-12-23T11:58:22.421Z,99.90
2017-12-23T12:00:48.714Z,99.90
2017-12-23T12:03:15.021Z,99.60
2017-12-23T12:05:41.317Z,99.50
2017-12-23T12:08:08.339Z,99.00
2017-12-23T12:10:34.623Z,99.00
2017-12-23T12:13:00.904Z,99.20
2017-12-23T12:15:27.141Z,98.80
2017-12-23T12:17:53.454Z,98.30
2017-12-23T12:20:19.739Z,98.20
2017-12-23T12:22:46.057Z,97.90
2017-12-23T12:25:13.132Z,98.30
2017-12-23T12:27:39.462Z,98.20
2017-12-23T12:30:06.473Z,98.00
2017-12-23T12:32:32.749Z,98.00
2017-12-23T12:34:59.044Z,98.00
2017-12-23T12:37:25.352Z,97.40
2017-12-23T12:39:51.644Z,97.60
2017-12-23T12:42:17.948Z,97.80
2017-12-23T12:44:44.275Z,98.00
2017-12-23T12:47:10.958Z,97.70
2017-12-23T12:49:37.217Z,97.20
2017-12-23T12:52:03.498Z,97.20
2017-12-23T12:54:29.794Z,97.30
2017-12-23T12:56:56.112Z,97.40
2017-12-23T12:59:22.496Z,97.20
2017-12-23T13:01:48.793Z,98.30
2017-12-23T13:04:15.149Z,98.70
2017-12-23T13:06:41.441Z,97.70
2017-12-23T13:09:07.783Z,97.30
2017-12-23T13:11:34.824Z,97.90
2017-12-23T13:14:01.140Z,97.80
2017-12-23T13:16:27.437Z,98.30
2017-12-23T13:18:53.736Z,98.30
2017-12-23T13:21:20.025Z,98.70
2017-12-23T13:23:47.110Z,98.80
2017-12-23T13:26:13.396Z,98.80
2017-12-23T13:28:41.336Z,99.00
2017-12-23T13:31:07.641Z,98.90
2017-12-23T13:33:34.677Z,98.60
2017-12-23T13:36:01.022Z,98.60
2017-12-23T13:38:27.277Z,98.40
2017-12-23T13:40:53.561Z,98.50
2017-12-23T13:43:19.833Z,98.60
2017-12-23T13:45:46.136Z,98.60
2017-12-23T13:48:12.470Z,98.60
2017-12-23T13:50:39.550Z,98.50
2017-12-23T13:53:05.835Z,98.40
2017-12-23T13:55:32.162Z,98.50
2017-12-23T13:57:58.633Z,98.60
2017-12-23T14:00:30.083Z,98.60
2017-12-23T14:02:57.100Z,98.60
2017-12-23T14:05:23.408Z,98.50
2017-12-23T14:07:49.669Z,98.00
2017-12-23T14:10:16.018Z,98.10
2017-12-23T14:12:42.292Z,98.20
2017-12-23T14:15:08.587Z,97.90
2017-12-23T14:17:35.635Z,97.70
2017-12-23T14:20:01.907Z,97.70
2017-12-23T14:22:28.177Z,97.70
2017-12-23T14:24:54.491Z,97.70
2017-12-23T14:27:20.768Z,97.30
2017-12-23T14:29:47.080Z,97.40
2017-12-23T14:32:13.408Z,97.60
2017-12-23T14:34:39.696Z,97.80
2017-12-23T14:37:05.983Z,98.00
2017-12-23T14:39:33.098Z,98.30
2017-12-23T14:41:59.882Z,98.20
2017-12-23T14:44:26.284Z,98.20
2017-12-23T14:46:52.607Z,98.10
2017-12-23T14:49:19.713Z,97.90
2017-12-23T14:51:45.999Z,98.00
2017-12-23T14:54:12.276Z,97.60
2017-12-23T14:56:38.576Z,97.60
2017-12-23T14:59:04.826Z,97.70
2017-12-23T15:01:31.153Z,97.90
2017-12-23T15:03:57.458Z,98.10
2017-12-23T15:06:23.884Z,98.30
2017-12-23T15:08:50.174Z,98.50
2017-12-23T15:11:17.232Z,98.80
2017-12-23T15:13:44.279Z,99.00
2017-12-23T15:16:10.569Z,98.90
2017-12-23T15:18:36.847Z,99.20
2017-12-23T15:21:03.244Z,99.30
2017-12-23T15:23:29.801Z,99.50
2017-12-23T15:25:56.068Z,99.60
2017-12-23T15:28:22.323Z,99.70
2017-12-23T15:30:48.584Z,99.80
2017-12-23T15:33:14.895Z,99.90
2017-12-23T15:35:41.234Z,99.90
2017-12-23T15:38:07.583Z,99.90
2017-12-23T15:40:33.890Z,99.90
2017-12-23T15:43:01.015Z,99.90
2017-12-23T15:45:27.274Z,99.90
2017-12-23T15:47:54.567Z,99.90
2017-12-23T15:50:27.615Z,99.90
2017-12-23T15:52:53.925Z,99.90
2017-12-23T15:55:20.215Z,99.90
2017-12-23T15:57:46.539Z,99.90
2017-12-23T16:00:12.852Z,99.90
2017-12-23T16:02:39.117Z,99.90
2017-12-23T16:05:05.458Z,99.60
2017-12-23T16:07:31.725Z,98.60
2017-12-23T16:09:58.005Z,98.60
2017-12-23T16:12:25.019Z,96.90
2017-12-23T16:14:51.367Z,96.80
2017-12-23T16:17:17.624Z,96.50
2017-12-23T16:19:43.908Z,95.30
2017-12-23T16:22:10.227Z,95.50
2017-12-23T16:24:37.224Z,94.70
2017-12-23T16:27:03.544Z,94.70
2017-12-23T16:29:29.841Z,94.80
2017-12-23T16:31:56.174Z,94.60
2017-12-23T16:34:22.476Z,94.80
2017-12-23T16:36:48.771Z,95.40
2017-12-23T16:39:15.043Z,96.10
2017-12-23T16:41:42.050Z,95.20
2017-12-23T16:44:08.343Z,95.10
2017-12-23T16:46:35.426Z,94.40
2017-12-23T16:49:01.721Z,94.40
2017-12-23T16:51:27.974Z,95.00
2017-12-23T16:53:54.254Z,95.50
2017-12-23T16:56:20.539Z,96.20
2017-12-23T16:58:46.852Z,96.70
2017-12-23T17:01:13.119Z,97.00
2017-12-23T17:03:39.413Z,97.40
2017-12-23T17:06:05.745Z,97.70
2017-12-23T17:08:32.829Z,98.20
2017-12-23T17:10:59.887Z,98.50
2017-12-23T17:13:26.944Z,98.70
2017-12-23T17:15:53.255Z,98.70
2017-12-23T17:18:20.288Z,98.90
2017-12-23T17:20:46.587Z,98.90
2017-12-23T17:23:12.937Z,98.90
2017-12-23T17:25:39.220Z,98.90
2017-12-23T17:28:11.532Z,98.90
2017-12-23T17:30:38.565Z,99.10
2017-12-23T17:33:04.854Z,99.00
2017-12-23T17:35:31.221Z,99.20
2017-12-23T17:37:57.606Z,99.30
2017-12-23T17:40:23.984Z,99.40
2017-12-23T17:42:50.341Z,99.20
2017-12-23T17:45:16.648Z,99.10
2017-12-23T17:47:43.752Z,99.20
2017-12-23T17:50:10.076Z,99.20
2017-12-23T17:52:36.389Z,99.30
2017-12-23T17:55:03.459Z,99.50
2017-12-23T17:57:30.503Z,99.50
2017-12-23T17:59:57.508Z,99.50
2017-12-23T18:02:23.764Z,99.50
2017-12-23T18:04:50.788Z,99.40
2017-12-23T18:07:17.823Z,99.30
2017-12-23T18:09:44.131Z,99.30
2017-12-23T18:12:10.412Z,99.20
2017-12-23T18:14:37.530Z,99.50
2017-12-23T18:17:03.861Z,99.20
2017-12-23T18:19:30.475Z,99.30
2017-12-23T18:21:57.543Z,99.50
2017-12-23T18:24:23.862Z,99.50
2017-12-23T18:26:50.179Z,99.60
2017-12-23T18:29:16.503Z,99.70
2017-12-23T18:31:42.780Z,99.70
2017-12-23T18:34:09.050Z,99.80
2017-12-23T18:36:35.388Z,99.90
2017-12-23T18:39:01.796Z,99.90
2017-12-23T18:41:28.150Z,99.90
2017-12-23T18:43:54.489Z,99.90
2017-12-23T18:46:20.983Z,99.90
2017-12-23T18:48:47.294Z,99.90
2017-12-23T18:51:13.603Z,99.90
2017-12-23T18:53:39.914Z,99.90
2017-12-23T18:56:06.265Z,99.90
2017-12-23T18:58:32.623Z,99.90
2017-12-23T19:00:58.903Z,99.90
2017-12-23T19:03:25.182Z,99.80
2017-12-23T19:05:53.163Z,99.80
2017-12-23T19:08:20.117Z,99.90
2017-12-23T19:10:46.655Z,99.80
2017-12-23T19:13:14.007Z,99.90
2017-12-23T19:15:41.121Z,99.90
2017-12-23T19:18:08.216Z,99.90
2017-12-23T19:20:34.552Z,99.90
2017-12-23T19:23:01.068Z,99.90
2017-12-23T19:25:27.490Z,99.90
2017-12-23T19:27:53.839Z,99.90
2017-12-23T19:30:22.306Z,99.90
2017-12-23T19:32:49.126Z,99.90
2017-12-23T19:35:16.228Z,99.90
2017-12-23T19:37:43.273Z,99.90
2017-12-23T19:40:09.629Z,99.90
2017-12-23T19:42:35.974Z,99.90
2017-12-23T19:45:02.333Z,99.90
2017-12-23T19:47:28.734Z,99.90
2017-12-23T19:49:55.798Z,99.90
2017-12-23T19:52:22.914Z,99.90
2017-12-23T19:54:49.218Z,99.90
2017-12-23T19:57:16.299Z,99.90
2017-12-23T19:59:42.646Z,99.90
2017-12-23T20:02:09.018Z,99.90
2017-12-23T20:04:35.334Z,99.90
2017-12-23T20:07:01.630Z,99.90
2017-12-23T20:09:28.710Z,99.90
2017-12-23T20:11:55.790Z,99.80
2017-12-23T20:14:22.134Z,99.80
2017-12-23T20:16:48.467Z,99.70
2017-12-23T20:19:14.838Z,99.70
2017-12-23T20:21:41.196Z,99.70
2017-12-23T20:24:07.566Z,99.70
2017-12-23T20:26:33.889Z,99.70
2017-12-23T20:29:00.343Z,99.70
2017-12-23T20:31:26.771Z,99.60
2017-12-23T20:33:53.119Z,99.60
2017-12-23T20:36:19.454Z,99.60
2017-12-23T20:38:45.831Z,99.50
2017-12-23T20:41:12.920Z,99.40
2017-12-23T20:43:39.298Z,99.60
2017-12-23T20:46:05.677Z,99.60
2017-12-23T20:48:32.067Z,99.50
2017-12-23T20:50:58.422Z,99.40
2017-12-23T20:53:25.002Z,99.30
2017-12-23T20:55:52.568Z,99.40
2017-12-23T20:58:19.816Z,99.40
2017-12-23T21:00:46.209Z,99.40
2017-12-23T21:03:12.552Z,99.40
2017-12-23T21:05:39.623Z,99.20
2017-12-23T21:08:05.958Z,99.20
2017-12-23T21:10:33.049Z,99.40
2017-12-23T21:12:59.386Z,99.40
2017-12-23T21:15:25.738Z,99.30
2017-12-23T21:17:52.074Z,99.30
2017-12-23T21:20:18.428Z,99.30
2017-12-23T21:22:45.633Z,99.40
2017-12-23T21:25:12.249Z,99.40
2017-12-23T21:27:38.609Z,99.40
2017-12-23T21:30:05.127Z,99.40
2017-12-23T21:32:31.530Z,99.40
2017-12-23T21:34:58.691Z,99.40
2017-12-23T21:37:25.771Z,99.40
2017-12-23T21:39:52.834Z,99.40
2017-12-23T21:42:19.907Z,99.50
2017-12-23T21:44:46.245Z,99.50
2017-12-23T21:47:13.616Z,99.60
2017-12-23T21:49:40.028Z,99.50
2017-12-23T21:52:07.108Z,99.50
2017-12-23T21:54:34.157Z,99.50
2017-12-23T21:57:00.501Z,99.50
2017-12-23T21:59:27.595Z,99.70
2017-12-23T22:01:53.930Z,99.70
2017-12-23T22:04:20.251Z,99.70
2017-12-23T22:06:46.579Z,99.70
2017-12-23T22:09:12.945Z,99.70
2017-12-23T22:11:40.035Z,99.90
2017-12-23T22:14:06.335Z,99.90
2017-12-23T22:16:32.908Z,99.90
2017-12-23T22:18:59.173Z,99.90
2017-12-23T22:21:25.500Z,99.90
2017-12-23T22:23:51.807Z,99.90
2017-12-23T22:26:18.075Z,99.80
2017-12-23T22:28:45.146Z,99.90
2017-12-23T22:31:11.417Z,99.90
2017-12-23T22:33:37.678Z,99.90
2017-12-23T22:36:03.925Z,99.90
2017-12-23T22:38:30.238Z,99.90
2017-12-23T22:40:57.231Z,99.80
2017-12-23T22:43:23.565Z,99.80
2017-12-23T22:45:49.938Z,99.80
2017-12-23T22:48:16.949Z,99.80
2017-12-23T22:50:43.244Z,99.80
2017-12-23T22:53:09.506Z,99.80
2017-12-23T22:55:35.788Z,99.80
2017-12-23T22:58:02.024Z,99.80
2017-12-23T23:00:28.298Z,99.80
2017-12-23T23:02:55.313Z,99.80
2017-12-23T23:05:21.616Z,99.80
2017-12-23T23:07:47.858Z,99.90
2017-12-23T23:10:14.135Z,99.90
2017-12-23T23:12:40.416Z,99.90
2017-12-23T23:15:07.452Z,99.80
2017-12-23T23:17:33.745Z,99.80
2017-12-23T23:20:00.062Z,99.80
2017-12-23T23:22:26.345Z,99.80
2017-12-23T23:24:52.664Z,99.90
2017-12-23T23:27:19.678Z,99.90
2017-12-23T23:29:45.948Z,99.90
2017-12-23T23:32:12.247Z,99.90
2017-12-23T23:34:38.525Z,99.90
2017-12-23T23:37:04.772Z,99.90
2017-12-23T23:39:31.806Z,99.90
2017-12-23T23:41:58.086Z,99.90
2017-12-23T23:44:25.101Z,99.90
2017-12-23T23:46:51.363Z,99.90
2017-12-23T23:49:17.622Z,99.90
2017-12-23T23:51:43.867Z,99.90
2017-12-23T23:54:10.890Z,99.90
2017-12-23T23:56:37.133Z,99.90
2017-12-23T23:59:03.444Z,99.90
